sensor_id;sensor_type;location;lat;lon;timestamp;temperature;humidity
55365;DHT22;41245;45.384;20.390;2022-07-01T00:01:36;691.60;153.60
55365;DHT22;41245;45.384;20.390;2022-07-01T00:04:01;691.60;153.60
55365;DHT22;41245;45.384;20.390;2022-07-01T00:06:27;691.60;153.60
55365;DHT22;41245;45.384;20.390;2022-07-01T00:08:53;691.50;153.60
55365;DHT22;41245;45.384;20.390;2022-07-01T00:11:19;691.50;153.60
55365;DHT22;41245;45.384;20.390;2022-07-01T00:13:44;691.50;153.60
55365;DHT22;41245;45.384;20.390;2022-07-01T00:16:10;691.40;153.60
55365;DHT22;41245;45.384;20.390;2022-07-01T00:18:36;691.40;153.60
55365;DHT22;41245;45.384;20.390;2022-07-01T00:21:02;691.30;153.60
55365;DHT22;41245;45.384;20.390;2022-07-01T00:23:28;691.30;153.60
55365;DHT22;41245;45.384;20.390;2022-07-01T00:25:54;691.20;153.60
55365;DHT22;41245;45.384;20.390;2022-07-01T00:28:20;691.20;153.60
55365;DHT22;41245;45.384;20.390;2022-07-01T00:30:46;691.20;153.60
55365;DHT22;41245;45.384;20.390;2022-07-01T00:33:12;666.50;153.60
55365;DHT22;41245;45.384;20.390;2022-07-01T00:35:37;666.50;153.60
55365;DHT22;41245;45.384;20.390;2022-07-01T00:38:03;666.40;153.60
55365;DHT22;41245;45.384;20.390;2022-07-01T00:40:29;666.30;153.60
55365;DHT22;41245;45.384;20.390;2022-07-01T00:42:55;666.30;153.60
55365;DHT22;41245;45.384;20.390;2022-07-01T00:45:21;666.30;153.60
55365;DHT22;41245;45.384;20.390;2022-07-01T00:47:46;666.10;153.60
55365;DHT22;41245;45.384;20.390;2022-07-01T00:50:14;666.10;153.60
55365;DHT22;41245;45.384;20.390;2022-07-01T00:52:42;691.20;153.60
55365;DHT22;41245;45.384;20.390;2022-07-01T00:55:09;666.00;153.60
55365;DHT22;41245;45.384;20.390;2022-07-01T00:57:37;666.00;153.60
55365;DHT22;41245;45.384;20.390;2022-07-01T01:00:10;666.00;153.60
55365;DHT22;41245;45.384;20.390;2022-07-01T01:02:36;666.00;153.60
55365;DHT22;41245;45.384;20.390;2022-07-01T01:05:05;666.00;153.60
55365;DHT22;41245;45.384;20.390;2022-07-01T01:07:32;666.00;153.60
55365;DHT22;41245;45.384;20.390;2022-07-01T01:09:59;666.00;153.60
55365;DHT22;41245;45.384;20.390;2022-07-01T01:12:28;665.90;153.60
55365;DHT22;41245;45.384;20.390;2022-07-01T01:14:54;665.90;153.60
55365;DHT22;41245;45.384;20.390;2022-07-01T01:17:20;665.80;153.60
55365;DHT22;41245;45.384;20.390;2022-07-01T01:19:50;665.80;153.60
55365;DHT22;41245;45.384;20.390;2022-07-01T01:22:17;665.70;153.60
55365;DHT22;41245;45.384;20.390;2022-07-01T01:24:44;665.60;153.60
55365;DHT22;41245;45.384;20.390;2022-07-01T01:27:10;640.90;128.00
55365;DHT22;41245;45.384;20.390;2022-07-01T01:29:36;640.90;128.00
55365;DHT22;41245;45.384;20.390;2022-07-01T01:32:04;640.90;128.00
55365;DHT22;41245;45.384;20.390;2022-07-01T01:34:35;640.90;128.00
55365;DHT22;41245;45.384;20.390;2022-07-01T01:37:06;640.90;128.00
55365;DHT22;41245;45.384;20.390;2022-07-01T01:39:32;640.80;128.00
55365;DHT22;41245;45.384;20.390;2022-07-01T01:41:58;640.90;128.00
55365;DHT22;41245;45.384;20.390;2022-07-01T01:44:24;640.80;128.00
55365;DHT22;41245;45.384;20.390;2022-07-01T01:46:50;640.90;128.00
55365;DHT22;41245;45.384;20.390;2022-07-01T01:49:16;640.80;128.00
55365;DHT22;41245;45.384;20.390;2022-07-01T01:51:42;640.80;128.00
55365;DHT22;41245;45.384;20.390;2022-07-01T01:54:08;640.80;128.00
55365;DHT22;41245;45.384;20.390;2022-07-01T01:56:33;640.90;128.00
55365;DHT22;41245;45.384;20.390;2022-07-01T01:58:59;640.70;128.00
55365;DHT22;41245;45.384;20.390;2022-07-01T02:01:25;640.70;128.00
55365;DHT22;41245;45.384;20.390;2022-07-01T02:03:52;640.60;128.00
55365;DHT22;41245;45.384;20.390;2022-07-01T02:06:19;640.60;128.00
55365;DHT22;41245;45.384;20.390;2022-07-01T02:08:45;640.50;128.00
55365;DHT22;41245;45.384;20.390;2022-07-01T02:11:11;640.50;128.00
55365;DHT22;41245;45.384;20.390;2022-07-01T02:13:37;640.50;128.00
55365;DHT22;41245;45.384;20.390;2022-07-01T02:16:04;640.50;128.00
55365;DHT22;41245;45.384;20.390;2022-07-01T02:18:30;640.50;128.00
55365;DHT22;41245;45.384;20.390;2022-07-01T02:21:00;640.50;128.00
55365;DHT22;41245;45.384;20.390;2022-07-01T02:23:26;640.50;128.00
55365;DHT22;41245;45.384;20.390;2022-07-01T02:25:52;640.50;128.00
55365;DHT22;41245;45.384;20.390;2022-07-01T02:28:17;640.50;128.00
55365;DHT22;41245;45.384;20.390;2022-07-01T02:30:43;640.40;128.00
55365;DHT22;41245;45.384;20.390;2022-07-01T02:33:10;640.40;128.00
55365;DHT22;41245;45.384;20.390;2022-07-01T02:35:39;640.40;128.00
55365;DHT22;41245;45.384;20.390;2022-07-01T02:38:06;640.30;128.00
55365;DHT22;41245;45.384;20.390;2022-07-01T02:40:32;640.30;128.00
55365;DHT22;41245;45.384;20.390;2022-07-01T02:42:59;640.20;128.00
55365;DHT22;41245;45.384;20.390;2022-07-01T02:45:25;640.10;128.00
55365;DHT22;41245;45.384;20.390;2022-07-01T02:47:51;640.10;128.00
55365;DHT22;41245;45.384;20.390;2022-07-01T02:50:18;640.20;128.00
55365;DHT22;41245;45.384;20.390;2022-07-01T02:52:45;640.10;128.00
55365;DHT22;41245;45.384;20.390;2022-07-01T02:55:12;640.20;128.00
55365;DHT22;41245;45.384;20.390;2022-07-01T02:57:40;640.20;128.00
55365;DHT22;41245;45.384;20.390;2022-07-01T03:00:08;640.20;128.00
55365;DHT22;41245;45.384;20.390;2022-07-01T03:02:34;640.20;128.00
55365;DHT22;41245;45.384;20.390;2022-07-01T03:05:00;640.30;128.00
55365;DHT22;41245;45.384;20.390;2022-07-01T03:07:26;640.20;128.00
55365;DHT22;41245;45.384;20.390;2022-07-01T03:09:52;640.10;128.00
55365;DHT22;41245;45.384;20.390;2022-07-01T03:12:18;640.20;128.00
55365;DHT22;41245;45.384;20.390;2022-07-01T03:14:59;640.20;128.00
55365;DHT22;41245;45.384;20.390;2022-07-01T03:17:30;640.50;128.00
55365;DHT22;41245;45.384;20.390;2022-07-01T03:19:56;640.40;128.00
55365;DHT22;41245;45.384;20.390;2022-07-01T03:22:24;640.40;128.00
55365;DHT22;41245;45.384;20.390;2022-07-01T03:24:50;640.40;128.00
55365;DHT22;41245;45.384;20.390;2022-07-01T03:29:44;640.80;128.00
55365;DHT22;41245;45.384;20.390;2022-07-01T03:32:10;640.60;128.00
55365;DHT22;41245;45.384;20.390;2022-07-01T03:34:46;640.60;128.00
55365;DHT22;41245;45.384;20.390;2022-07-01T03:37:14;640.80;128.00
55365;DHT22;41245;45.384;20.390;2022-07-01T03:39:40;640.90;128.00
55365;DHT22;41245;45.384;20.390;2022-07-01T03:42:07;665.60;153.60
55365;DHT22;41245;45.384;20.390;2022-07-01T03:44:34;665.70;153.60
55365;DHT22;41245;45.384;20.390;2022-07-01T03:47:00;665.90;153.60
55365;DHT22;41245;45.384;20.390;2022-07-01T03:49:26;666.20;153.60
55365;DHT22;41245;45.384;20.390;2022-07-01T03:51:53;691.20;153.60
55365;DHT22;41245;45.384;20.390;2022-07-01T04:46:38;998.70;332.80
55365;DHT22;41245;45.384;20.390;2022-07-01T04:49:04;973.60;307.20
55365;DHT22;41245;45.384;20.390;2022-07-01T04:51:30;973.40;307.20
55365;DHT22;41245;45.384;20.390;2022-07-01T05:28:45;998.70;332.80
55365;DHT22;41245;45.384;20.390;2022-07-01T05:31:11;998.70;332.80
55365;DHT22;41245;45.384;20.390;2022-07-01T05:33:37;998.90;332.80
55365;DHT22;41245;45.384;20.390;2022-07-01T05:36:03;1024.20;332.80
55365;DHT22;41245;45.384;20.390;2022-07-01T05:38:28;1050.00;358.40
55365;DHT22;41245;45.384;20.390;2022-07-01T05:40:54;1050.30;358.40
55365;DHT22;41245;45.384;20.390;2022-07-01T05:43:20;1075.70;358.40
55365;DHT22;41245;45.384;20.390;2022-07-01T05:45:46;1076.00;358.40
55365;DHT22;41245;45.384;20.390;2022-07-01T05:48:12;1076.10;358.40
55365;DHT22;41245;45.384;20.390;2022-07-01T05:50:39;1100.80;384.00
55365;DHT22;41245;45.384;20.390;2022-07-01T05:53:05;1101.60;384.00
55365;DHT22;41245;45.384;20.390;2022-07-01T05:55:31;1126.70;409.60
55365;DHT22;41245;45.384;20.390;2022-07-01T05:57:56;1126.70;409.60
55365;DHT22;41245;45.384;20.390;2022-07-01T06:00:22;1127.00;409.60
55365;DHT22;41245;45.384;20.390;2022-07-01T06:02:48;1152.10;409.60
55365;DHT22;41245;45.384;20.390;2022-07-01T06:05:14;1152.80;409.60
55365;DHT22;41245;45.384;20.390;2022-07-01T06:41:52;1126.80;409.60
55365;DHT22;41245;45.384;20.390;2022-07-01T06:44:18;1075.80;358.40
55365;DHT22;41245;45.384;20.390;2022-07-01T06:46:44;1024.50;332.80
55365;DHT22;41245;45.384;20.390;2022-07-01T06:49:10;998.60;332.80
55365;DHT22;41245;45.384;20.390;2022-07-01T06:54:02;947.30;281.60
55365;DHT22;41245;45.384;20.390;2022-07-01T06:56:28;921.70;281.60
55365;DHT22;41245;45.384;20.390;2022-07-01T06:58:54;896.80;256.00
55365;DHT22;41245;45.384;20.390;2022-07-01T07:01:20;896.50;256.00
55365;DHT22;41245;45.384;20.390;2022-07-01T07:03:46;896.30;256.00
55365;DHT22;41245;45.384;20.390;2022-07-01T07:06:12;896.10;256.00
55365;DHT22;41245;45.384;20.390;2022-07-01T07:08:37;896.00;256.00
55365;DHT22;41245;45.384;20.390;2022-07-01T07:11:04;871.00;256.00
55365;DHT22;41245;45.384;20.390;2022-07-01T07:13:30;871.00;256.00
55365;DHT22;41245;45.384;20.390;2022-07-01T07:15:55;870.90;256.00
55365;DHT22;41245;45.384;20.390;2022-07-01T07:18:21;870.90;256.00
55365;DHT22;41245;45.384;20.390;2022-07-01T07:20:47;870.90;256.00
55365;DHT22;41245;45.384;20.390;2022-07-01T07:23:13;870.80;256.00
55365;DHT22;41245;45.384;20.390;2022-07-01T07:25:39;870.70;256.00
55365;DHT22;41245;45.384;20.390;2022-07-01T07:28:05;870.60;256.00
55365;DHT22;41245;45.384;20.390;2022-07-01T07:30:31;870.60;256.00
55365;DHT22;41245;45.384;20.390;2022-07-01T07:32:56;870.60;256.00
55365;DHT22;41245;45.384;20.390;2022-07-01T07:35:22;870.40;256.00
55365;DHT22;41245;45.384;20.390;2022-07-01T07:37:48;870.40;256.00
55365;DHT22;41245;45.384;20.390;2022-07-01T07:40:14;870.40;256.00
55365;DHT22;41245;45.384;20.390;2022-07-01T07:42:44;870.40;256.00
55365;DHT22;41245;45.384;20.390;2022-07-01T07:45:10;870.40;256.00
55365;DHT22;41245;45.384;20.390;2022-07-01T07:47:37;870.40;256.00
55365;DHT22;41245;45.384;20.390;2022-07-01T07:50:04;870.40;256.00
55365;DHT22;41245;45.384;20.390;2022-07-01T07:52:30;845.70;256.00
55365;DHT22;41245;45.384;20.390;2022-07-01T07:54:56;870.40;256.00
55365;DHT22;41245;45.384;20.390;2022-07-01T07:57:22;870.50;256.00
55365;DHT22;41245;45.384;20.390;2022-07-01T07:59:47;870.60;256.00
55365;DHT22;41245;45.384;20.390;2022-07-01T08:02:13;870.70;256.00
55365;DHT22;41245;45.384;20.390;2022-07-01T08:04:39;870.70;256.00
55365;DHT22;41245;45.384;20.390;2022-07-01T08:07:05;870.70;256.00
55365;DHT22;41245;45.384;20.390;2022-07-01T08:09:31;870.90;256.00
55365;DHT22;41245;45.384;20.390;2022-07-01T08:12:03;870.90;256.00
55365;DHT22;41245;45.384;20.390;2022-07-01T08:14:29;871.00;256.00
55365;DHT22;41245;45.384;20.390;2022-07-01T08:16:55;870.90;256.00
55365;DHT22;41245;45.384;20.390;2022-07-01T08:19:20;871.00;256.00
55365;DHT22;41245;45.384;20.390;2022-07-01T08:21:46;871.10;256.00
55365;DHT22;41245;45.384;20.390;2022-07-01T08:24:12;871.10;256.00
55365;DHT22;41245;45.384;20.390;2022-07-01T08:26:37;871.10;256.00
55365;DHT22;41245;45.384;20.390;2022-07-01T08:29:04;871.20;256.00
55365;DHT22;41245;45.384;20.390;2022-07-01T08:31:29;871.30;256.00
55365;DHT22;41245;45.384;20.390;2022-07-01T08:33:57;896.00;256.00
55365;DHT22;41245;45.384;20.390;2022-07-01T08:36:22;896.00;256.00
55365;DHT22;41245;45.384;20.390;2022-07-01T08:38:48;896.10;256.00
55365;DHT22;41245;45.384;20.390;2022-07-01T08:41:15;896.10;256.00
55365;DHT22;41245;45.384;20.390;2022-07-01T08:43:41;896.10;256.00
55365;DHT22;41245;45.384;20.390;2022-07-01T08:46:08;896.20;256.00
55365;DHT22;41245;45.384;20.390;2022-07-01T08:48:34;896.30;256.00
55365;DHT22;41245;45.384;20.390;2022-07-01T08:51:00;896.50;256.00
55365;DHT22;41245;45.384;20.390;2022-07-01T08:53:32;896.30;256.00
55365;DHT22;41245;45.384;20.390;2022-07-01T08:55:58;896.40;256.00
55365;DHT22;41245;45.384;20.390;2022-07-01T08:58:42;896.50;256.00
55365;DHT22;41245;45.384;20.390;2022-07-01T09:01:22;896.50;256.00
55365;DHT22;41245;45.384;20.390;2022-07-01T09:03:50;896.50;256.00
55365;DHT22;41245;45.384;20.390;2022-07-01T09:08:45;896.80;256.00
55365;DHT22;41245;45.384;20.390;2022-07-01T09:11:19;896.90;256.00
55365;DHT22;41245;45.384;20.390;2022-07-01T09:13:45;896.80;256.00
55365;DHT22;41245;45.384;20.390;2022-07-01T09:16:30;896.70;256.00
55365;DHT22;41245;45.384;20.390;2022-07-01T09:19:04;921.60;281.60
55365;DHT22;41245;45.384;20.390;2022-07-01T09:26:24;921.90;281.60
55365;DHT22;41245;45.384;20.390;2022-07-01T09:31:20;922.10;281.60
55365;DHT22;41245;45.384;20.390;2022-07-01T09:41:13;922.40;281.60
55365;DHT22;41245;45.384;20.390;2022-07-01T09:43:39;922.40;281.60
55365;DHT22;41245;45.384;20.390;2022-07-01T09:46:09;922.30;281.60
55365;DHT22;41245;45.384;20.390;2022-07-01T09:51:02;922.40;281.60
55365;DHT22;41245;45.384;20.390;2022-07-01T09:53:28;922.40;281.60
55365;DHT22;41245;45.384;20.390;2022-07-01T09:55:54;922.40;281.60
55365;DHT22;41245;45.384;20.390;2022-07-01T09:58:20;922.40;281.60
55365;DHT22;41245;45.384;20.390;2022-07-01T10:00:46;947.50;281.60
55365;DHT22;41245;45.384;20.390;2022-07-01T10:03:12;922.50;281.60
55365;DHT22;41245;45.384;20.390;2022-07-01T10:23:05;922.50;281.60
55365;DHT22;41245;45.384;20.390;2022-07-01T11:05:47;947.90;281.60
55365;DHT22;41245;45.384;20.390;2022-07-01T11:13:07;972.80;307.20
55365;DHT22;41245;45.384;20.390;2022-07-01T11:15:34;948.00;281.60
55365;DHT22;41245;45.384;20.390;2022-07-01T11:18:00;947.80;281.60
55365;DHT22;41245;45.384;20.390;2022-07-01T11:20:29;947.60;281.60
55365;DHT22;41245;45.384;20.390;2022-07-01T11:22:55;947.60;281.60
55365;DHT22;41245;45.384;20.390;2022-07-01T11:25:21;947.50;281.60
55365;DHT22;41245;45.384;20.390;2022-07-01T11:27:51;947.40;281.60
55365;DHT22;41245;45.384;20.390;2022-07-01T11:30:18;947.30;281.60
55365;DHT22;41245;45.384;20.390;2022-07-01T11:32:47;922.50;281.60
55365;DHT22;41245;45.384;20.390;2022-07-01T11:35:18;947.20;281.60
55365;DHT22;41245;45.384;20.390;2022-07-01T11:38:11;922.50;281.60
55365;DHT22;41245;45.384;20.390;2022-07-01T11:41:05;922.50;281.60
55365;DHT22;41245;45.384;20.390;2022-07-01T11:43:34;947.40;281.60
55365;DHT22;41245;45.384;20.390;2022-07-01T11:46:02;947.20;281.60
55365;DHT22;41245;45.384;20.390;2022-07-01T11:48:40;947.20;281.60
55365;DHT22;41245;45.384;20.390;2022-07-01T11:51:11;922.50;281.60
55365;DHT22;41245;45.384;20.390;2022-07-01T11:53:39;922.40;281.60
55365;DHT22;41245;45.384;20.390;2022-07-01T11:56:05;922.40;281.60
55365;DHT22;41245;45.384;20.390;2022-07-01T11:58:41;922.50;281.60
55365;DHT22;41245;45.384;20.390;2022-07-01T12:01:07;922.30;281.60
55365;DHT22;41245;45.384;20.390;2022-07-01T12:03:34;922.30;281.60
55365;DHT22;41245;45.384;20.390;2022-07-01T12:06:01;922.40;281.60
55365;DHT22;41245;45.384;20.390;2022-07-01T12:08:26;922.50;281.60
55365;DHT22;41245;45.384;20.390;2022-07-01T12:10:53;947.50;281.60
55365;DHT22;41245;45.384;20.390;2022-07-01T12:13:23;947.70;281.60
55365;DHT22;41245;45.384;20.390;2022-07-01T12:15:49;947.90;281.60
55365;DHT22;41245;45.384;20.390;2022-07-01T12:18:16;948.00;281.60
55365;DHT22;41245;45.384;20.390;2022-07-01T12:21:08;948.10;281.60
55365;DHT22;41245;45.384;20.390;2022-07-01T12:23:34;973.00;307.20
55365;DHT22;41245;45.384;20.390;2022-07-01T12:26:03;973.00;307.20
55365;DHT22;41245;45.384;20.390;2022-07-01T12:28:38;973.00;307.20
55365;DHT22;41245;45.384;20.390;2022-07-01T12:31:08;972.80;307.20
55365;DHT22;41245;45.384;20.390;2022-07-01T12:33:39;972.80;307.20
55365;DHT22;41245;45.384;20.390;2022-07-01T12:36:07;972.90;307.20
55365;DHT22;41245;45.384;20.390;2022-07-01T12:38:33;973.00;307.20
55365;DHT22;41245;45.384;20.390;2022-07-01T12:41:00;973.10;307.20
55365;DHT22;41245;45.384;20.390;2022-07-01T12:43:31;973.10;307.20
55365;DHT22;41245;45.384;20.390;2022-07-01T12:45:59;973.10;307.20
55365;DHT22;41245;45.384;20.390;2022-07-01T12:48:25;973.20;307.20
55365;DHT22;41245;45.384;20.390;2022-07-01T12:50:53;973.20;307.20
55365;DHT22;41245;45.384;20.390;2022-07-01T12:53:20;973.10;307.20
55365;DHT22;41245;45.384;20.390;2022-07-01T12:55:51;973.30;307.20
55365;DHT22;41245;45.384;20.390;2022-07-01T12:58:20;973.40;307.20
55365;DHT22;41245;45.384;20.390;2022-07-01T13:00:48;973.30;307.20
55365;DHT22;41245;45.384;20.390;2022-07-01T13:03:19;973.40;307.20
55365;DHT22;41245;45.384;20.390;2022-07-01T13:05:45;973.40;307.20
55365;DHT22;41245;45.384;20.390;2022-07-01T13:08:11;973.50;307.20
55365;DHT22;41245;45.384;20.390;2022-07-01T13:10:37;973.50;307.20
55365;DHT22;41245;45.384;20.390;2022-07-01T13:13:03;973.40;307.20
55365;DHT22;41245;45.384;20.390;2022-07-01T13:15:29;973.40;307.20
55365;DHT22;41245;45.384;20.390;2022-07-01T13:17:56;973.50;307.20
55365;DHT22;41245;45.384;20.390;2022-07-01T22:01:03;768.00;204.80
55365;DHT22;41245;45.384;20.390;2022-07-01T22:03:39;743.20;204.80
55365;DHT22;41245;45.384;20.390;2022-07-01T22:06:06;743.20;204.80
55365;DHT22;41245;45.384;20.390;2022-07-01T22:08:48;743.00;204.80
55365;DHT22;41245;45.384;20.390;2022-07-01T22:11:16;742.90;204.80
55365;DHT22;41245;45.384;20.390;2022-07-01T22:14:00;742.90;204.80
55365;DHT22;41245;45.384;20.390;2022-07-01T22:16:29;742.90;204.80
55365;DHT22;41245;45.384;20.390;2022-07-01T22:18:58;742.90;204.80
55365;DHT22;41245;45.384;20.390;2022-07-01T22:21:26;742.80;204.80
55365;DHT22;41245;45.384;20.390;2022-07-01T22:23:55;742.90;204.80
55365;DHT22;41245;45.384;20.390;2022-07-01T22:26:21;742.90;204.80
55365;DHT22;41245;45.384;20.390;2022-07-01T22:28:48;742.90;204.80
55365;DHT22;41245;45.384;20.390;2022-07-01T22:31:16;742.80;204.80
55365;DHT22;41245;45.384;20.390;2022-07-01T22:33:42;742.80;204.80
55365;DHT22;41245;45.384;20.390;2022-07-01T22:36:12;742.80;204.80
55365;DHT22;41245;45.384;20.390;2022-07-01T22:38:38;742.80;204.80
55365;DHT22;41245;45.384;20.390;2022-07-01T22:41:04;742.70;204.80
55365;DHT22;41245;45.384;20.390;2022-07-01T22:43:32;742.70;204.80
55365;DHT22;41245;45.384;20.390;2022-07-01T22:51:07;742.50;204.80
55365;DHT22;41245;45.384;20.390;2022-07-01T22:53:42;742.50;204.80
55365;DHT22;41245;45.384;20.390;2022-07-01T22:56:19;742.50;204.80
55365;DHT22;41245;45.384;20.390;2022-07-01T22:59:01;742.50;204.80
55365;DHT22;41245;45.384;20.390;2022-07-01T23:01:36;742.50;204.80
55365;DHT22;41245;45.384;20.390;2022-07-01T23:04:08;742.50;204.80
55365;DHT22;41245;45.384;20.390;2022-07-01T23:09:59;742.50;204.80
55365;DHT22;41245;45.384;20.390;2022-07-01T23:15:36;742.40;204.80
55365;DHT22;41245;45.384;20.390;2022-07-01T23:18:26;742.40;204.80
55365;DHT22;41245;45.384;20.390;2022-07-01T23:20:58;742.40;204.80
55365;DHT22;41245;45.384;20.390;2022-07-01T23:23:26;717.60;179.20
55365;DHT22;41245;45.384;20.390;2022-07-01T23:25:55;742.40;204.80
55365;DHT22;41245;45.384;20.390;2022-07-01T23:28:25;742.40;204.80
55365;DHT22;41245;45.384;20.390;2022-07-01T23:30:52;742.40;204.80
55365;DHT22;41245;45.384;20.390;2022-07-01T23:33:18;717.70;179.20
55365;DHT22;41245;45.384;20.390;2022-07-01T23:35:45;717.60;179.20
55365;DHT22;41245;45.384;20.390;2022-07-01T23:38:15;717.60;179.20
55365;DHT22;41245;45.384;20.390;2022-07-01T23:40:41;717.60;179.20
55365;DHT22;41245;45.384;20.390;2022-07-01T23:43:07;717.50;179.20
55365;DHT22;41245;45.384;20.390;2022-07-01T23:45:34;717.50;179.20
55365;DHT22;41245;45.384;20.390;2022-07-01T23:48:07;717.40;179.20
55365;DHT22;41245;45.384;20.390;2022-07-01T23:50:36;717.40;179.20
55365;DHT22;41245;45.384;20.390;2022-07-01T23:53:02;717.30;179.20
55365;DHT22;41245;45.384;20.390;2022-07-01T23:55:28;717.10;179.20
55365;DHT22;41245;45.384;20.390;2022-07-01T23:57:54;717.30;179.20
